createdAt,value
2023-05-14T00:00:02.714Z,948.3806
2023-05-14T00:01:03.787Z,948.3694
2023-05-14T00:02:04.922Z,948.3616
2023-05-14T00:03:06.239Z,948.3594
2023-05-14T00:04:07.612Z,948.3533
2023-05-14T00:05:09.681Z,948.3578
2023-05-14T00:06:10.793Z,948.3539
2023-05-14T00:07:11.897Z,948.3555
2023-05-14T00:08:12.893Z,948.3572
2023-05-14T00:09:14.057Z,948.3561
2023-05-14T00:10:15.084Z,948.3745
2023-05-14T00:11:16.155Z,948.3772
2023-05-14T00:12:17.226Z,948.3666
2023-05-14T00:13:18.293Z,948.3533
2023-05-14T00:14:19.423Z,948.3455
2023-05-14T00:15:20.467Z,948.3361
2023-05-14T00:16:21.579Z,948.3278
2023-05-14T00:17:22.688Z,948.3228
2023-05-14T00:18:23.795Z,948.3178
2023-05-14T00:19:24.875Z,948.3089
2023-05-14T00:20:26.048Z,948.2922
2023-05-14T00:21:27.140Z,948.2978
2023-05-14T00:22:28.272Z,948.2922
2023-05-14T00:23:29.391Z,948.2894
2023-05-14T00:24:30.542Z,948.2745
2023-05-14T00:25:31.660Z,948.2500
2023-05-14T00:26:32.684Z,948.2394
2023-05-14T00:27:33.748Z,948.2300
2023-05-14T00:28:34.886Z,948.2255
2023-05-14T00:29:35.992Z,948.2150
2023-05-14T00:30:37.124Z,948.1989
2023-05-14T00:31:38.142Z,948.1884
2023-05-14T00:32:39.340Z,948.1945
2023-05-14T00:33:40.332Z,948.1822
2023-05-14T00:34:41.492Z,948.1805
2023-05-14T00:35:42.557Z,948.1839
2023-05-14T00:36:43.562Z,948.1945
2023-05-14T00:37:44.542Z,948.1855
2023-05-14T00:38:45.687Z,948.1855
2023-05-14T00:39:46.697Z,948.1811
2023-05-14T00:40:47.880Z,948.1700
2023-05-14T00:41:48.878Z,948.1655
2023-05-14T00:42:49.986Z,948.1639
2023-05-14T00:43:51.053Z,948.1506
2023-05-14T00:44:52.100Z,948.1361
2023-05-14T00:45:53.339Z,948.1306
2023-05-14T00:46:54.493Z,948.1222
2023-05-14T00:47:55.461Z,948.1284
2023-05-14T00:48:56.532Z,948.1461
2023-05-14T00:49:57.743Z,948.1422
2023-05-14T00:50:58.723Z,948.1384
2023-05-14T00:51:59.856Z,948.1306
2023-05-14T00:53:00.886Z,948.1356
2023-05-14T00:54:02.031Z,948.1367
2023-05-14T00:55:03.055Z,948.1467
2023-05-14T00:56:04.111Z,948.1556
2023-05-14T00:57:05.243Z,948.1622
2023-05-14T00:58:06.300Z,948.1766
2023-05-14T00:59:07.397Z,948.1872
2023-05-14T01:00:08.473Z,948.1922
2023-05-14T01:01:09.716Z,948.1989
2023-05-14T01:02:10.705Z,948.1961
2023-05-14T01:03:12.010Z,948.1939
2023-05-14T01:04:13.181Z,948.1978
2023-05-14T01:05:14.310Z,948.2150
2023-05-14T01:06:15.469Z,948.2078
2023-05-14T01:07:16.491Z,948.2067
2023-05-14T01:08:17.628Z,948.2045
2023-05-14T01:09:18.724Z,948.2017
2023-05-14T01:10:19.809Z,948.2067
2023-05-14T01:11:20.953Z,948.1978
2023-05-14T01:12:21.960Z,948.1822
2023-05-14T01:13:23.144Z,948.1661
2023-05-14T01:14:24.117Z,948.1600
2023-05-14T01:15:25.238Z,948.1445
2023-05-14T01:16:26.365Z,948.1406
2023-05-14T01:17:28.408Z,948.1350
2023-05-14T01:18:29.488Z,948.1445
2023-05-14T01:19:30.553Z,948.1489
2023-05-14T01:20:31.681Z,948.1472
2023-05-14T01:21:32.713Z,948.1506
2023-05-14T01:22:34.840Z,948.1461
2023-05-14T01:23:35.976Z,948.1483
2023-05-14T01:24:36.978Z,948.1495
2023-05-14T01:25:38.074Z,948.1461
2023-05-14T01:26:39.109Z,948.1400
2023-05-14T01:27:40.245Z,948.1284
2023-05-14T01:28:41.303Z,948.1100
2023-05-14T01:29:43.399Z,948.1050
2023-05-14T01:30:44.509Z,948.0989
2023-05-14T01:31:45.592Z,948.0911
2023-05-14T01:32:46.707Z,948.0917
2023-05-14T01:33:48.832Z,948.0956
2023-05-14T01:34:49.851Z,948.0906
2023-05-14T01:35:50.988Z,948.0806
2023-05-14T01:36:52.028Z,948.0795
2023-05-14T01:37:53.168Z,948.0750
2023-05-14T01:38:54.230Z,948.0711
2023-05-14T01:39:55.321Z,948.0561
2023-05-14T01:40:56.362Z,948.0516
2023-05-14T01:41:57.524Z,948.0372
2023-05-14T01:42:58.623Z,948.0250
2023-05-14T01:43:59.728Z,948.0200
2023-05-14T01:45:00.858Z,948.0061
2023-05-14T01:46:01.965Z,948.0056
2023-05-14T01:47:03.041Z,948.0084
2023-05-14T01:48:04.241Z,948.0084
2023-05-14T01:49:06.256Z,948.0139
2023-05-14T01:50:07.461Z,948.0245
2023-05-14T01:51:08.440Z,948.0317
2023-05-14T01:52:09.581Z,948.0289
2023-05-14T01:53:10.598Z,948.0361
2023-05-14T01:54:11.762Z,948.0267
2023-05-14T01:55:12.747Z,948.0206
2023-05-14T01:56:13.913Z,948.0100
2023-05-14T01:57:14.938Z,948.0061
2023-05-14T01:58:16.043Z,948.0106
2023-05-14T01:59:17.072Z,948.0161
2023-05-14T02:00:18.201Z,948.0084
2023-05-14T02:01:19.313Z,947.9995
2023-05-14T02:02:20.426Z,947.9850
2023-05-14T02:03:21.500Z,947.9833
2023-05-14T02:04:22.765Z,947.9789
2023-05-14T02:05:23.825Z,947.9694
2023-05-14T02:06:24.921Z,947.9694
2023-05-14T02:07:25.983Z,947.9672
2023-05-14T02:08:27.117Z,947.9733
2023-05-14T02:09:28.117Z,947.9739
2023-05-14T02:10:29.290Z,947.9744
2023-05-14T02:11:30.381Z,947.9800
2023-05-14T02:12:31.483Z,947.9961
2023-05-14T02:13:32.568Z,947.9955
2023-05-14T02:14:33.635Z,947.9761
2023-05-14T02:15:34.662Z,947.9584
2023-05-14T02:16:35.770Z,947.9617
2023-05-14T02:17:36.963Z,947.9506
2023-05-14T02:18:38.142Z,947.9489
2023-05-14T02:19:39.162Z,947.9472
2023-05-14T02:20:40.267Z,947.9489
2023-05-14T02:21:41.299Z,947.9361
2023-05-14T02:22:42.464Z,947.9278
2023-05-14T02:23:43.468Z,947.9250
2023-05-14T02:24:44.503Z,947.9283
2023-05-14T02:25:45.644Z,947.9389
2023-05-14T02:26:46.757Z,947.9389
2023-05-14T02:27:47.844Z,947.9289
2023-05-14T02:28:48.959Z,947.9261
2023-05-14T02:29:49.977Z,947.9411
2023-05-14T02:30:51.210Z,947.9422
2023-05-14T02:31:53.281Z,947.9316
2023-05-14T02:32:54.495Z,947.9222
2023-05-14T02:33:55.501Z,947.9194
2023-05-14T02:34:56.554Z,947.9083
2023-05-14T02:35:57.680Z,947.8972
2023-05-14T02:36:58.789Z,947.8734
2023-05-14T02:37:59.762Z,947.8655
2023-05-14T02:39:00.831Z,947.8644
2023-05-14T02:40:01.862Z,947.8489
2023-05-14T02:41:02.916Z,947.8444
2023-05-14T02:42:03.996Z,947.8356
2023-05-14T02:43:05.125Z,947.8306
2023-05-14T02:44:06.227Z,947.8278
2023-05-14T02:45:07.356Z,947.8278
2023-05-14T02:46:08.382Z,947.8200
2023-05-14T02:47:09.657Z,947.8061
2023-05-14T02:48:10.857Z,947.8028
2023-05-14T02:49:11.905Z,947.8005
2023-05-14T02:50:12.982Z,947.7955
2023-05-14T02:51:14.004Z,947.7795
2023-05-14T02:52:15.098Z,947.7606
2023-05-14T02:53:16.129Z,947.7622
2023-05-14T02:54:17.228Z,947.7561
2023-05-14T02:55:18.342Z,947.7534
2023-05-14T02:56:19.477Z,947.7567
2023-05-14T02:57:20.595Z,947.7484
2023-05-14T02:58:26.018Z,947.7461
2023-05-14T02:59:22.102Z,947.7461
2023-05-14T03:00:23.750Z,947.7519
2023-05-14T03:01:25.536Z,947.7484
2023-05-14T03:02:27.941Z,947.7572
2023-05-14T03:03:29.359Z,947.7695
2023-05-14T03:04:30.920Z,947.7639
2023-05-14T03:05:32.063Z,947.7611
2023-05-14T03:06:33.095Z,947.7428
2023-05-14T03:07:34.189Z,947.7200
2023-05-14T03:08:35.408Z,947.7289
2023-05-14T03:09:38.301Z,947.7328
2023-05-14T03:10:39.522Z,947.7300
2023-05-14T03:11:40.633Z,947.7383
2023-05-14T03:12:41.799Z,947.7372
2023-05-14T03:13:42.909Z,947.7455
2023-05-14T03:14:43.986Z,947.7444
2023-05-14T03:15:45.075Z,947.7283
2023-05-14T03:16:46.197Z,947.7145
2023-05-14T03:17:48.342Z,947.7000
2023-05-14T03:18:49.359Z,947.6844
2023-05-14T03:19:50.487Z,947.6611
2023-05-14T03:20:51.621Z,947.6500
2023-05-14T03:21:52.681Z,947.6550
2023-05-14T03:22:54.111Z,947.6567
2023-05-14T03:23:55.301Z,947.6694
2023-05-14T03:24:56.373Z,947.6833
2023-05-14T03:25:57.474Z,947.7017
2023-05-14T03:26:58.544Z,947.6911
2023-05-14T03:27:59.681Z,947.6950
2023-05-14T03:29:00.673Z,947.6961
2023-05-14T03:30:02.104Z,947.6939
2023-05-14T03:31:03.119Z,947.6816
2023-05-14T03:42:43.676Z,947.6700
2023-05-14T03:42:43.676Z,947.6694
2023-05-14T03:42:43.676Z,947.6500
2023-05-14T03:42:54.766Z,947.6600
2023-05-14T03:43:55.862Z,947.6700
2023-05-14T03:44:56.931Z,947.6500
2023-05-14T03:45:58.033Z,947.6528
2023-05-14T03:46:59.031Z,947.6544
2023-05-14T03:48:00.309Z,947.6655
2023-05-14T03:49:01.422Z,947.6711
2023-05-14T03:50:02.602Z,947.6672
2023-05-14T03:51:03.643Z,947.6655
2023-05-14T03:52:04.775Z,947.6678
2023-05-14T03:53:05.908Z,947.6672
2023-05-14T03:54:07.016Z,947.6622
2023-05-14T03:55:08.098Z,947.6495
2023-05-14T03:56:09.099Z,947.6556
2023-05-14T03:57:10.183Z,947.6639
2023-05-14T03:58:11.290Z,947.6533
2023-05-14T03:59:12.357Z,947.6528
2023-05-14T04:00:13.869Z,947.6389
2023-05-14T04:01:14.923Z,947.6222
2023-05-14T04:02:16.113Z,947.6395
2023-05-14T04:03:19.809Z,947.6422
2023-05-14T04:04:19.211Z,947.6395
2023-05-14T04:05:20.575Z,947.6453
2023-05-14T04:06:22.752Z,947.6478
2023-05-14T04:07:24.216Z,947.6544
2023-05-14T04:08:26.279Z,947.6550
2023-05-14T04:09:27.761Z,947.6672
2023-05-14T04:11:33.934Z,947.6561
2023-05-14T04:12:34.586Z,947.6464
2023-05-14T04:13:36.602Z,947.6547
2023-05-14T04:14:38.807Z,947.6478
2023-05-14T04:15:40.497Z,947.6412
2023-05-14T04:16:42.097Z,947.6461
2023-05-14T04:17:44.520Z,947.6495
2023-05-14T04:18:46.450Z,947.6561
2023-05-14T04:19:47.977Z,947.6639
2023-05-14T04:20:49.712Z,947.6739
2023-05-14T04:21:52.041Z,947.6772
2023-05-14T04:22:53.410Z,947.6805
2023-05-14T04:23:54.652Z,947.6816
2023-05-14T04:24:55.893Z,947.6844
2023-05-14T04:25:57.013Z,947.6928
2023-05-14T04:26:58.489Z,947.6928
2023-05-14T04:28:00.121Z,947.6956
2023-05-14T04:29:01.304Z,947.7084
2023-05-14T04:30:02.649Z,947.7061
2023-05-14T04:31:03.900Z,947.7072
2023-05-14T04:32:05.218Z,947.7122
2023-05-14T04:33:07.356Z,947.7150
2023-05-14T04:34:08.464Z,947.7156
2023-05-14T04:35:09.696Z,947.7339
2023-05-14T04:36:11.067Z,947.7439
2023-05-14T04:37:12.272Z,947.7333
2023-05-14T04:38:13.445Z,947.7394
2023-05-14T04:39:14.607Z,947.7394
2023-05-14T04:40:15.805Z,947.7366
2023-05-14T04:41:16.947Z,947.7344
2023-05-14T04:42:18.165Z,947.7383
2023-05-14T04:43:19.401Z,947.7433
2023-05-14T04:44:20.565Z,947.7405
2023-05-14T04:45:21.729Z,947.7495
2023-05-14T04:46:22.987Z,947.7472
2023-05-14T04:47:24.163Z,947.7416
2023-05-14T04:48:25.438Z,947.7316
2023-05-14T04:49:26.665Z,947.7189
2023-05-14T04:50:27.992Z,947.7278
2023-05-14T04:51:29.149Z,947.7311
2023-05-14T04:52:30.594Z,947.7433
2023-05-14T04:53:31.720Z,947.7561
2023-05-14T04:54:33.059Z,947.7778
2023-05-14T04:55:35.312Z,947.7872
2023-05-14T04:56:36.522Z,947.7872
2023-05-14T04:57:37.836Z,947.7983
2023-05-14T04:58:39.024Z,947.8055
2023-05-14T04:59:40.165Z,947.7955
2023-05-14T05:00:41.334Z,947.7961
2023-05-14T05:01:42.631Z,947.8083
2023-05-14T05:02:44.868Z,947.7989
2023-05-14T05:03:46.185Z,947.7894
2023-05-14T05:04:47.505Z,947.7966
2023-05-14T05:05:48.736Z,947.8016
2023-05-14T05:06:49.865Z,947.8011
2023-05-14T05:07:51.100Z,947.8083
2023-05-14T05:08:52.349Z,947.8289
2023-05-14T05:09:53.847Z,947.8145
2023-05-14T05:10:55.235Z,947.8189
2023-05-14T05:11:56.427Z,947.8161
2023-05-14T05:12:57.629Z,947.8228
2023-05-14T05:13:58.755Z,947.8450
2023-05-14T05:14:59.968Z,947.8566
2023-05-14T05:16:01.232Z,947.8317
2023-05-14T05:17:02.592Z,947.8378
2023-05-14T05:18:04.004Z,947.8428
2023-05-14T05:19:06.329Z,947.8439
2023-05-14T05:20:08.085Z,947.8256
2023-05-14T05:21:09.171Z,947.8245
2023-05-14T05:22:10.358Z,947.8139
2023-05-14T05:23:11.526Z,947.8161
2023-05-14T05:24:12.754Z,947.8428
2023-05-14T05:25:14.484Z,947.8594
2023-05-14T05:26:15.608Z,947.8616
2023-05-14T05:27:16.965Z,947.8572
2023-05-14T05:28:18.299Z,947.8555
2023-05-14T05:29:19.805Z,947.8483
2023-05-14T05:30:20.920Z,947.8505
2023-05-14T05:31:22.183Z,947.8350
2023-05-14T05:32:23.488Z,947.8578
2023-05-14T05:33:24.696Z,947.8583
2023-05-14T05:34:25.908Z,947.8755
2023-05-14T05:35:26.984Z,947.8778
2023-05-14T05:36:28.356Z,947.8772
2023-05-14T05:37:29.622Z,947.8822
2023-05-14T05:38:31.005Z,947.8728
2023-05-14T05:39:32.421Z,947.8694
2023-05-14T05:40:33.603Z,947.8345
2023-05-14T05:41:34.781Z,947.8289
2023-05-14T05:42:36.032Z,947.8228
2023-05-14T05:43:37.318Z,947.7883
2023-05-14T05:44:38.613Z,947.7783
2023-05-14T05:45:39.771Z,947.7883
2023-05-14T05:46:41.018Z,947.7878
2023-05-14T05:47:42.287Z,947.8066
2023-05-14T05:48:43.473Z,947.8089
2023-05-14T05:49:44.923Z,947.7989
2023-05-14T05:50:46.166Z,947.7734
2023-05-14T05:51:47.303Z,947.7650
2023-05-14T05:52:48.481Z,947.7745
2023-05-14T05:53:49.773Z,947.7856
2023-05-14T05:54:51.020Z,947.7867
2023-05-14T05:55:52.190Z,947.7978
2023-05-14T05:56:53.286Z,947.7922
2023-05-14T05:57:54.578Z,947.7961
2023-05-14T05:58:55.942Z,947.7905
2023-05-14T05:59:57.105Z,947.7922
2023-05-14T06:00:58.425Z,947.7878
2023-05-14T06:01:59.691Z,947.7944
2023-05-14T06:03:01.049Z,947.7944
2023-05-14T06:04:02.236Z,947.7955
2023-05-14T06:05:03.365Z,947.7939
2023-05-14T06:06:04.437Z,947.7978
2023-05-14T06:07:05.512Z,947.8028
2023-05-14T06:08:06.734Z,947.8167
2023-05-14T06:09:07.940Z,947.8189
2023-05-14T06:10:09.197Z,947.8339
2023-05-14T06:11:10.311Z,947.8222
2023-05-14T06:12:11.541Z,947.8245
2023-05-14T06:13:12.793Z,947.8116
2023-05-14T06:14:14.086Z,947.8050
2023-05-14T06:15:15.433Z,947.8000
2023-05-14T06:16:16.799Z,947.7867
2023-05-14T06:17:17.899Z,947.7800
2023-05-14T06:18:20.065Z,947.8089
2023-05-14T06:19:21.484Z,947.8066
2023-05-14T06:20:22.942Z,947.8066
2023-05-14T06:21:25.151Z,947.8195
2023-05-14T06:22:26.651Z,947.8322
2023-05-14T06:23:27.962Z,947.8256
2023-05-14T06:24:29.087Z,947.8589
2023-05-14T06:25:30.375Z,947.8439
2023-05-14T06:26:31.438Z,947.8533
2023-05-14T06:27:33.982Z,947.8511
2023-05-14T06:28:35.265Z,947.8650
2023-05-14T06:29:36.541Z,947.8622
2023-05-14T06:30:38.319Z,947.8622
2023-05-14T06:31:39.669Z,947.8661
2023-05-14T06:32:41.028Z,947.8906
2023-05-14T06:33:43.388Z,947.8705
2023-05-14T06:34:44.685Z,947.8655
2023-05-14T06:35:45.946Z,947.8633
2023-05-14T06:36:47.372Z,947.8666
2023-05-14T06:37:48.540Z,947.8650
2023-05-14T06:38:49.672Z,947.8628
2023-05-14T06:39:50.816Z,947.8655
2023-05-14T06:40:52.096Z,947.8616
2023-05-14T06:41:53.328Z,947.8572
2023-05-14T06:42:54.548Z,947.8505
2023-05-14T06:43:55.842Z,947.8422
2023-05-14T06:44:57.131Z,947.8378
2023-05-14T06:45:58.553Z,947.8456
2023-05-14T06:46:59.860Z,947.8422
2023-05-14T06:48:01.571Z,947.8406
2023-05-14T06:49:03.798Z,947.8428
2023-05-14T06:50:04.906Z,947.8467
2023-05-14T06:51:06.171Z,947.8511
2023-05-14T06:52:07.441Z,947.8439
2023-05-14T06:53:08.594Z,947.8700
2023-05-14T06:54:10.028Z,947.8761
2023-05-14T06:55:11.401Z,947.8895
2023-05-14T06:56:12.469Z,947.8889
2023-05-14T06:57:14.823Z,947.8945
2023-05-14T06:58:16.234Z,947.8922
2023-05-14T06:59:18.570Z,947.8716
2023-05-14T07:00:19.850Z,947.8700
2023-05-14T07:01:21.208Z,947.8639
2023-05-14T07:02:23.435Z,947.8811
2023-05-14T07:03:24.750Z,947.8889
2023-05-14T07:04:25.959Z,947.8806
2023-05-14T07:05:28.232Z,947.8778
2023-05-14T07:06:30.543Z,947.8672
2023-05-14T07:07:31.837Z,947.8772
2023-05-14T07:08:33.031Z,947.8766
2023-05-14T07:09:34.267Z,947.8711
2023-05-14T07:10:35.650Z,947.8672
2023-05-14T07:11:36.800Z,947.8666
2023-05-14T07:12:37.958Z,947.8650
2023-05-14T07:13:39.144Z,947.8800
2023-05-14T07:14:40.450Z,947.8745
2023-05-14T07:16:54.973Z,947.8750
2023-05-14T07:17:05.416Z,947.8672
2023-05-14T07:18:06.960Z,947.8600
2023-05-14T07:19:09.213Z,947.8494
2023-05-14T07:20:11.363Z,947.8483
2023-05-14T07:21:12.959Z,947.8566
2023-05-14T07:22:14.507Z,947.8450
2023-05-14T07:23:16.977Z,947.8411
2023-05-14T07:24:17.237Z,947.8272
2023-05-14T07:25:19.405Z,947.8141
2023-05-14T07:26:21.285Z,947.8111
2023-05-14T07:27:23.947Z,947.8156
2023-05-14T07:28:26.409Z,947.7989
2023-05-14T07:29:28.815Z,947.7883
2023-05-14T07:30:28.227Z,947.7861
2023-05-14T07:31:29.797Z,947.7847
2023-05-14T07:32:32.215Z,947.7850
2023-05-14T07:33:33.651Z,947.8000
2023-05-14T07:34:34.978Z,947.8111
2023-05-14T07:35:36.570Z,947.8128
2023-05-14T07:36:38.564Z,947.7889
2023-05-14T07:37:40.542Z,947.8083
2023-05-14T07:38:43.278Z,947.8055
2023-05-14T07:39:41.935Z,947.8139
2023-05-14T07:40:43.546Z,947.8024
2023-05-14T07:41:45.250Z,947.7933
2023-05-14T07:42:46.716Z,947.8184
2023-05-14T07:43:48.045Z,947.8206
2023-05-14T07:44:50.149Z,947.8178
2023-05-14T07:45:51.563Z,947.8094
2023-05-14T07:46:52.925Z,947.8128
2023-05-14T07:47:54.440Z,947.7978
2023-05-14T07:48:55.812Z,947.7911
2023-05-14T07:49:57.552Z,947.7784
2023-05-14T07:50:59.985Z,947.7894
2023-05-14T07:52:01.515Z,947.7939
2023-05-14T07:53:03.381Z,947.7950
2023-05-14T07:54:03.241Z,947.7850
2023-05-14T07:55:04.845Z,947.8011
2023-05-14T07:56:06.315Z,947.8078
2023-05-14T07:57:07.581Z,947.8134
2023-05-14T07:58:09.003Z,947.8128
2023-05-14T07:59:10.576Z,947.8100
2023-05-14T08:00:11.904Z,947.7961
2023-05-14T08:01:14.084Z,947.7983
2023-05-14T08:02:16.439Z,947.7950
2023-05-14T08:03:19.361Z,947.8022
2023-05-14T08:04:19.533Z,947.7950
2023-05-14T08:05:21.269Z,947.7941
2023-05-14T08:06:22.767Z,947.7878
2023-05-14T08:07:26.556Z,947.7900
2023-05-14T08:08:28.600Z,947.7911
2023-05-14T08:09:30.089Z,947.8105
2023-05-14T08:10:31.960Z,947.7922
2023-05-14T08:11:35.101Z,947.7994
2023-05-14T08:12:36.212Z,947.7855
2023-05-14T08:13:38.195Z,947.7867
2023-05-14T08:14:39.432Z,947.7828
2023-05-14T08:15:40.753Z,947.7828
2023-05-14T08:16:42.301Z,947.7839
2023-05-14T08:17:44.366Z,947.7578
2023-05-14T08:18:45.956Z,947.7450
2023-05-14T08:19:47.462Z,947.7333
2023-05-14T08:20:49.003Z,947.7228
2023-05-14T08:21:50.135Z,947.7183
2023-05-14T08:22:51.467Z,947.7111
2023-05-14T08:23:52.573Z,947.6928
2023-05-14T08:24:53.739Z,947.6866
2023-05-14T08:26:04.512Z,947.6816
2023-05-14T08:26:56.273Z,947.6772
2023-05-14T08:27:57.366Z,947.6747
2023-05-14T08:28:58.590Z,947.6816
2023-05-14T08:30:01.040Z,947.6833
2023-05-14T08:31:02.250Z,947.6450
2023-05-14T08:32:08.744Z,947.6605
2023-05-14T08:33:03.959Z,947.6794
2023-05-14T08:34:05.031Z,947.6856
2023-05-14T08:35:06.088Z,947.6828
2023-05-14T08:36:07.178Z,947.6650
2023-05-14T08:37:08.424Z,947.6744
2023-05-14T08:38:09.536Z,947.6783
2023-05-14T08:39:10.801Z,947.6583
2023-05-14T08:40:11.854Z,947.6694
2023-05-14T08:41:12.913Z,947.6833
2023-05-14T08:42:14.058Z,947.6772
2023-05-14T08:43:15.058Z,947.6744
2023-05-14T08:44:16.126Z,947.6766
2023-05-14T08:45:17.152Z,947.6495
2023-05-14T08:46:18.299Z,947.6428
2023-05-14T08:47:19.308Z,947.6550
2023-05-14T08:48:20.528Z,947.6528
2023-05-14T08:49:22.780Z,947.6400
2023-05-14T08:50:23.974Z,947.6311
2023-05-14T08:51:24.996Z,947.6406
2023-05-14T08:52:26.050Z,947.6289
2023-05-14T08:53:27.224Z,947.6194
2023-05-14T08:54:28.334Z,947.6150
2023-05-14T08:55:29.434Z,947.6078
2023-05-14T08:56:30.500Z,947.5850
2023-05-14T08:57:31.825Z,947.5639
2023-05-14T08:58:32.843Z,947.5433
2023-05-14T08:59:33.938Z,947.5428
2023-05-14T09:00:35.012Z,947.5178
2023-05-14T09:01:36.089Z,947.5067
2023-05-14T09:02:37.150Z,947.5072
2023-05-14T09:03:38.517Z,947.4984
2023-05-14T09:04:40.654Z,947.4928
2023-05-14T09:05:41.726Z,947.4928
2023-05-14T09:06:43.025Z,947.4844
2023-05-14T09:07:44.104Z,947.4683
2023-05-14T09:08:45.217Z,947.4500
2023-05-14T09:09:46.317Z,947.4434
2023-05-14T09:10:47.421Z,947.4078
2023-05-14T09:11:48.535Z,947.3928
2023-05-14T09:12:49.598Z,947.3878
2023-05-14T09:13:50.734Z,947.3795
2023-05-14T09:14:51.944Z,947.3772
2023-05-14T09:15:53.048Z,947.3817
2023-05-14T09:16:54.206Z,947.3766
2023-05-14T09:17:55.396Z,947.3639
2023-05-14T09:18:56.559Z,947.3250
2023-05-14T09:19:57.663Z,947.3295
2023-05-14T09:20:58.777Z,947.3300
2023-05-14T09:21:59.858Z,947.3278
2023-05-14T09:23:00.934Z,947.3267
2023-05-14T09:24:02.042Z,947.3072
2023-05-14T09:25:03.120Z,947.3028
2023-05-14T09:26:04.171Z,947.3011
2023-05-14T09:27:05.325Z,947.3072
2023-05-14T09:28:06.403Z,947.2900
2023-05-14T09:29:07.482Z,947.2966
2023-05-14T09:30:08.572Z,947.2939
2023-05-14T09:31:09.814Z,947.2833
2023-05-14T09:32:10.872Z,947.2556
2023-05-14T09:33:12.009Z,947.2589
2023-05-14T09:34:13.107Z,947.2539
2023-05-14T09:35:14.165Z,947.2684
2023-05-14T09:36:15.429Z,947.2556
2023-05-14T09:37:16.492Z,947.2450
2023-05-14T09:38:17.554Z,947.2333
2023-05-14T09:39:18.779Z,947.2339
2023-05-14T09:40:19.821Z,947.2422
2023-05-14T09:41:20.878Z,947.2383
2023-05-14T09:42:21.961Z,947.2389
2023-05-14T09:43:23.326Z,947.2300
2023-05-14T09:44:24.355Z,947.2278
2023-05-14T09:45:25.443Z,947.2400
2023-05-14T09:46:26.508Z,947.2316
2023-05-14T09:47:27.723Z,947.2078
2023-05-14T09:48:28.995Z,947.2072
2023-05-14T09:49:30.050Z,947.2189
2023-05-14T09:50:31.141Z,947.2289
2023-05-14T09:51:32.151Z,947.2239
2023-05-14T09:52:33.292Z,947.2222
2023-05-14T09:53:34.328Z,947.2372
2023-05-14T09:54:35.593Z,947.2183
2023-05-14T09:55:36.622Z,947.2205
2023-05-14T09:56:37.627Z,947.2350
2023-05-14T09:57:38.775Z,947.2450
2023-05-14T09:58:39.866Z,947.2416
2023-05-14T09:59:40.894Z,947.2272
2023-05-14T10:00:41.952Z,947.2250
2023-05-14T10:01:43.310Z,947.2211
2023-05-14T10:02:44.474Z,947.2194
2023-05-14T10:03:46.519Z,947.2078
2023-05-14T10:04:47.648Z,947.2022
2023-05-14T10:05:48.739Z,947.2017
2023-05-14T10:06:49.836Z,947.2000
2023-05-14T10:07:50.872Z,947.2144
2023-05-14T10:08:51.947Z,947.2144
2023-05-14T10:09:53.230Z,947.1978
2023-05-14T10:10:54.355Z,947.2056
2023-05-14T10:11:55.468Z,947.2017
2023-05-14T10:12:56.523Z,947.1839
2023-05-14T10:13:57.596Z,947.2000
2023-05-14T10:14:58.820Z,947.1844
2023-05-14T10:15:59.872Z,947.1934
2023-05-14T10:17:00.989Z,947.1833
2023-05-14T10:18:02.052Z,947.1778
2023-05-14T10:19:04.146Z,947.1722
2023-05-14T10:20:05.327Z,947.1778
2023-05-14T10:21:07.435Z,947.1556
2023-05-14T10:22:08.451Z,947.1605
2023-05-14T10:23:09.541Z,947.1550
2023-05-14T10:24:10.582Z,947.1628
2023-05-14T10:25:11.658Z,947.1711
2023-05-14T10:26:12.889Z,947.1678
2023-05-14T10:27:14.021Z,947.1472
2023-05-14T10:28:15.070Z,947.1611
2023-05-14T10:29:16.292Z,947.1484
2023-05-14T10:30:17.295Z,947.1384
2023-05-14T10:31:18.539Z,947.1400
2023-05-14T10:32:19.571Z,947.1255
2023-05-14T10:33:20.634Z,947.1211
2023-05-14T10:34:21.668Z,947.1284
2023-05-14T10:35:22.764Z,947.1255
2023-05-14T10:36:23.841Z,947.1155
2023-05-14T10:37:25.078Z,947.1155
2023-05-14T10:38:26.143Z,947.1122
2023-05-14T10:39:27.206Z,947.0917
2023-05-14T10:40:28.266Z,947.0689
2023-05-14T10:41:29.429Z,947.0739
2023-05-14T10:42:30.550Z,947.0756
2023-05-14T10:43:31.675Z,947.0745
2023-05-14T10:44:32.744Z,947.0695
2023-05-14T10:45:33.825Z,947.0684
2023-05-14T10:46:35.145Z,947.0695
2023-05-14T10:47:37.287Z,947.0784
2023-05-14T10:48:39.274Z,947.0795
2023-05-14T10:49:43.831Z,947.0583
2023-05-14T10:50:41.901Z,947.0472
2023-05-14T10:51:43.093Z,947.0629
2023-05-14T10:52:45.079Z,947.0795
2023-05-14T10:53:46.139Z,947.0711
2023-05-14T10:54:47.278Z,947.0728
2023-05-14T10:55:48.429Z,947.0555
2023-05-14T10:56:49.554Z,947.0383
2023-05-14T10:57:50.758Z,947.0544
2023-05-14T10:58:51.872Z,947.0433
2023-05-14T10:59:52.931Z,947.0261
2023-05-14T11:00:54.072Z,946.9883
2023-05-14T11:01:55.208Z,946.9717
2023-05-14T11:02:56.665Z,946.9789
2023-05-14T11:03:57.823Z,946.9889
2023-05-14T11:04:58.932Z,946.9689
2023-05-14T11:06:00.045Z,946.9155
2023-05-14T11:07:01.095Z,946.9261
2023-05-14T11:08:02.167Z,946.9272
2023-05-14T11:09:03.239Z,946.9222
2023-05-14T11:10:04.281Z,946.9172
2023-05-14T11:11:05.396Z,946.8995
2023-05-14T11:12:06.452Z,946.9067
2023-05-14T11:13:07.560Z,946.8978
2023-05-14T11:14:10.144Z,946.8834
2023-05-14T11:15:11.449Z,946.8700
2023-05-14T11:16:22.825Z,946.8655
2023-05-14T11:17:13.362Z,946.8505
2023-05-14T11:18:15.535Z,946.8275
2023-05-14T11:19:16.733Z,946.8139
2023-05-14T11:20:17.981Z,946.8116
2023-05-14T11:21:19.114Z,946.8189
2023-05-14T11:22:20.280Z,946.8145
2023-05-14T11:23:21.354Z,946.7839
2023-05-14T11:24:22.375Z,946.7811
2023-05-14T11:25:23.638Z,946.7578
2023-05-14T11:26:24.853Z,946.7539
2023-05-14T11:27:26.128Z,946.7305
2023-05-14T11:28:27.319Z,946.7172
2023-05-14T11:29:28.457Z,946.7022
2023-05-14T11:30:29.929Z,946.7300
2023-05-14T11:31:31.279Z,946.6884
2023-05-14T11:32:33.475Z,946.6672
2023-05-14T11:33:35.656Z,946.6161
2023-05-14T11:34:36.939Z,946.6306
2023-05-14T11:35:38.044Z,946.6628
2023-05-14T11:36:39.117Z,946.6489
2023-05-14T11:37:40.371Z,946.6339
2023-05-14T11:38:41.455Z,946.6245
2023-05-14T11:39:42.606Z,946.6278
2023-05-14T11:40:44.003Z,946.6006
2023-05-14T11:41:45.065Z,946.5944
2023-05-14T11:42:46.204Z,946.5895
2023-05-14T11:43:47.283Z,946.6078
2023-05-14T11:44:48.450Z,946.6128
2023-05-14T11:45:49.724Z,946.6255
2023-05-14T11:46:50.856Z,946.6361
2023-05-14T11:47:51.976Z,946.6600
2023-05-14T11:48:54.088Z,946.6778
2023-05-14T11:49:55.190Z,946.6816
2023-05-14T11:50:56.262Z,946.6694
2023-05-14T11:51:57.418Z,946.6739
2023-05-14T11:52:58.465Z,946.6939
2023-05-14T11:53:59.553Z,946.6805
2023-05-14T11:55:00.629Z,946.6650
2023-05-14T11:56:01.729Z,946.6350
2023-05-14T11:57:03.002Z,946.6155
2023-05-14T11:58:04.113Z,946.6022
2023-05-14T11:59:05.153Z,946.5717
2023-05-14T12:00:06.310Z,946.5589
2023-05-14T12:01:07.393Z,946.5494
2023-05-14T12:02:08.506Z,946.5583
2023-05-14T12:03:09.697Z,946.5734
2023-05-14T12:04:10.995Z,946.5778
2023-05-14T12:05:12.157Z,946.5795
2023-05-14T12:06:13.283Z,946.5544
2023-05-14T12:07:14.359Z,946.5533
2023-05-14T12:08:15.428Z,946.5605